createdAt,value
2022-11-12T00:01:04.082Z,136432.75
2022-11-12T00:03:31.550Z,133397.47
2022-11-12T00:06:00.376Z,132729.75
2022-11-12T00:08:28.250Z,134747.59
2022-11-12T00:10:55.945Z,137804.06
2022-11-12T00:13:23.409Z,136078.22
2022-11-12T00:15:50.970Z,134034.53
2022-11-12T00:18:18.539Z,133026.50
2022-11-12T00:20:46.118Z,134727.09
2022-11-12T00:23:15.081Z,132679.25
2022-11-12T00:25:42.614Z,132654.53
2022-11-12T00:28:11.782Z,132009.50
2022-11-12T00:30:40.468Z,131670.13
2022-11-12T00:33:08.431Z,129609.19
2022-11-12T00:35:36.888Z,129258.00
2022-11-12T00:38:04.378Z,131313.03
2022-11-12T00:40:33.195Z,132352.22
2022-11-12T00:43:00.638Z,130580.41
2022-11-12T00:45:28.105Z,128202.72
2022-11-12T00:47:56.810Z,126500.50
2022-11-12T00:50:24.526Z,125824.94
2022-11-12T00:52:53.096Z,126494.09
2022-11-12T00:55:23.746Z,125466.97
2022-11-12T00:57:52.571Z,125153.56
2022-11-12T01:00:20.411Z,124790.47
2022-11-12T01:02:51.226Z,125446.81
2022-11-12T01:05:19.428Z,126147.78
2022-11-12T01:07:49.424Z,124098.31
2022-11-12T01:10:20.700Z,122393.69
2022-11-12T01:12:48.171Z,122393.69
2022-11-12T01:15:17.151Z,120708.16
2022-11-12T01:17:44.808Z,121741.28
2022-11-12T01:20:12.390Z,123045.91
2022-11-12T01:22:39.857Z,122012.78
2022-11-12T01:25:08.035Z,119307.78
2022-11-12T01:27:35.531Z,117956.59
2022-11-12T01:30:03.110Z,117951.63
2022-11-12T01:32:35.923Z,119004.66
2022-11-12T01:35:03.571Z,121342.09
2022-11-12T01:37:31.027Z,117631.28
2022-11-12T01:39:58.492Z,118981.53
2022-11-12T01:42:29.107Z,118631.16
2022-11-12T01:44:56.744Z,118972.47
2022-11-12T01:47:26.330Z,117615.34
2022-11-12T01:49:59.337Z,117603.44
2022-11-12T01:52:32.278Z,117594.47
2022-11-12T01:55:06.627Z,118600.06
2022-11-12T01:57:39.696Z,116565.22
2022-11-12T02:00:10.683Z,117908.75
2022-11-12T02:02:38.904Z,117556.69
2022-11-12T02:05:10.432Z,115877.34
2022-11-12T02:07:41.273Z,115545.19
2022-11-12T02:10:10.253Z,115215.94
2022-11-12T02:12:55.622Z,116919.16
2022-11-12T02:15:23.126Z,116233.03
2022-11-12T02:17:50.630Z,116581.03
2022-11-12T02:20:19.933Z,113867.78
2022-11-12T02:22:48.746Z,115554.97
2022-11-12T02:25:20.597Z,116224.22
2022-11-12T02:27:51.639Z,116548.50
2022-11-12T02:30:20.505Z,117240.47
2022-11-12T02:32:47.959Z,118241.88
2022-11-12T02:35:15.566Z,120240.38
2022-11-12T02:37:43.021Z,117874.84
2022-11-12T02:40:12.128Z,116522.84
2022-11-12T02:42:39.597Z,115509.03
2022-11-12T02:45:07.732Z,115848.91
2022-11-12T02:47:35.206Z,115508.03
2022-11-12T02:50:02.683Z,114493.44
2022-11-12T02:52:30.169Z,116851.91
2022-11-12T02:54:57.627Z,116807.44
2022-11-12T02:57:26.415Z,114461.47
2022-11-12T02:59:53.893Z,115122.44
2022-11-12T03:02:21.412Z,116778.75
2022-11-12T03:04:49.728Z,114433.38
2022-11-12T03:07:17.491Z,115432.81
2022-11-12T03:09:45.035Z,113073.19
2022-11-12T03:12:12.611Z,112076.63
2022-11-12T03:14:41.526Z,114772.03
2022-11-12T03:17:08.975Z,114432.41
2022-11-12T03:19:36.437Z,113080.88
2022-11-12T03:22:03.912Z,114077.34
2022-11-12T03:24:31.415Z,112068.09
2022-11-12T03:26:59.244Z,112409.47
2022-11-12T03:29:27.187Z,112418.97
2022-11-12T03:31:56.018Z,113422.34
2022-11-12T03:34:23.502Z,113744.53
2022-11-12T03:36:51.030Z,114413.97
2022-11-12T03:39:18.499Z,114739.00
2022-11-12T03:41:45.996Z,113379.13
2022-11-12T03:44:13.433Z,112030.13
2022-11-12T03:46:44.199Z,112737.53
2022-11-12T03:49:13.320Z,111715.41
2022-11-12T03:51:40.778Z,113371.44
2022-11-12T03:54:08.541Z,112674.56
2022-11-12T03:56:37.690Z,111343.00
2022-11-12T03:59:05.604Z,111335.47
2022-11-12T04:01:33.282Z,113025.34
2022-11-12T04:04:00.802Z,111984.63
2022-11-12T04:06:47.181Z,113305.25
2022-11-12T04:09:14.756Z,112973.69
2022-11-12T04:11:42.235Z,113636.78
2022-11-12T04:14:08.752Z,114967.59
2022-11-12T04:16:53.661Z,115295.13
2022-11-12T04:19:38.929Z,112942.19
2022-11-12T04:22:10.054Z,114606.03
2022-11-12T04:24:56.328Z,115267.81
2022-11-12T04:27:26.280Z,114253.34
2022-11-12T04:30:12.409Z,113924.91
2022-11-12T04:32:41.781Z,112904.88
2022-11-12T04:35:10.082Z,114244.66
2022-11-12T04:37:47.809Z,113598.34
2022-11-12T04:40:33.838Z,115613.84
2022-11-12T04:43:19.233Z,114283.34
2022-11-12T04:45:49.041Z,113275.53
2022-11-12T04:48:16.598Z,113267.88
2022-11-12T04:50:45.630Z,113289.94
2022-11-12T04:53:14.969Z,112612.59
2022-11-12T04:55:42.651Z,114303.66
2022-11-12T04:58:10.106Z,114648.75
2022-11-12T05:00:37.575Z,112606.88
2022-11-12T05:03:05.171Z,113976.03
2022-11-12T05:05:34.094Z,113629.09
2022-11-12T05:08:02.166Z,114996.78
2022-11-12T05:10:31.204Z,112959.38
2022-11-12T05:12:59.084Z,115985.47
2022-11-12T05:15:27.221Z,117343.00
2022-11-12T05:17:54.730Z,118351.41
2022-11-12T05:20:22.203Z,117677.47
2022-11-12T05:23:04.967Z,115965.81
2022-11-12T05:25:34.223Z,115995.28
2022-11-12T05:28:01.712Z,115332.25
2022-11-12T05:30:29.194Z,114671.06
2022-11-12T05:32:56.658Z,116021.81
2022-11-12T05:35:24.117Z,115343.00
2022-11-12T05:37:51.572Z,114323.00
2022-11-12T05:40:19.091Z,115702.94
2022-11-12T05:42:47.875Z,112633.56
2022-11-12T05:45:15.349Z,112956.50
2022-11-12T05:47:43.113Z,113311.03
2022-11-12T05:50:10.916Z,111954.31
2022-11-12T05:52:38.380Z,115026.00
2022-11-12T05:55:06.670Z,110620.53
2022-11-12T05:57:34.122Z,110953.03
2022-11-12T06:00:03.500Z,111959.06
2022-11-12T06:02:31.031Z,111633.16
2022-11-12T06:04:58.610Z,109271.78
2022-11-12T06:07:26.054Z,110273.03
2022-11-12T06:09:53.519Z,111283.66
2022-11-12T06:12:20.968Z,111612.38
2022-11-12T06:14:48.392Z,111601.06
2022-11-12T06:17:17.460Z,111613.31
2022-11-12T06:19:44.936Z,110935.19
2022-11-12T06:22:15.620Z,110942.69
2022-11-12T06:24:43.091Z,110937.09
2022-11-12T06:27:10.754Z,111267.66
2022-11-12T06:29:39.497Z,110931.47
2022-11-12T06:32:06.968Z,109926.59
2022-11-12T06:34:35.739Z,110612.09
2022-11-12T06:37:03.269Z,108921.75
2022-11-12T06:39:30.718Z,108947.59
2022-11-12T06:41:58.194Z,109954.50
2022-11-12T06:44:25.720Z,109632.13
2022-11-12T06:46:54.138Z,111309.09
2022-11-12T06:49:21.747Z,111639.78
2022-11-12T06:51:51.649Z,110969.94
2022-11-12T06:54:19.146Z,110982.13
2022-11-12T06:56:46.635Z,110997.19
2022-11-12T06:59:14.138Z,110666.38
2022-11-12T07:01:41.616Z,112346.69
2022-11-12T07:04:10.436Z,111679.47
2022-11-12T07:06:38.485Z,111354.31
2022-11-12T07:09:08.160Z,112048.13
2022-11-12T07:11:35.711Z,112396.16
2022-11-12T07:14:03.175Z,114421.75
2022-11-12T07:16:30.646Z,117153.19
2022-11-12T07:18:58.086Z,116805.44
2022-11-12T07:21:25.683Z,117151.19
2022-11-12T07:23:53.318Z,116826.25
2022-11-12T07:26:24.069Z,118181.84
2022-11-12T07:28:53.008Z,119513.56
2022-11-12T07:31:21.477Z,121206.66
2022-11-12T07:33:49.894Z,120886.00
2022-11-12T07:36:19.063Z,119878.91
2022-11-12T07:38:46.907Z,120903.38
2022-11-12T07:41:16.265Z,120559.16
2022-11-12T07:43:46.495Z,119231.13
2022-11-12T07:46:16.427Z,121619.81
2022-11-12T07:48:46.110Z,121963.28
2022-11-12T07:51:15.463Z,129467.81
2022-11-12T07:53:43.646Z,125370.44
2022-11-12T07:56:12.954Z,124689.16
2022-11-12T07:58:40.744Z,125733.44
2022-11-12T08:01:11.243Z,126760.06
2022-11-12T08:03:39.101Z,126779.34
2022-11-12T08:06:07.120Z,127837.78
2022-11-12T08:08:34.662Z,129872.56
2022-11-12T08:11:02.168Z,131959.25
2022-11-12T08:13:29.631Z,138151.91
2022-11-12T08:15:59.240Z,137462.03
2022-11-12T08:18:29.795Z,137433.00
2022-11-12T08:21:01.377Z,141493.53
2022-11-12T08:23:28.870Z,138373.31
2022-11-12T08:25:59.747Z,133619.34
2022-11-12T08:28:27.574Z,133963.09
2022-11-12T08:30:56.571Z,133276.75
2022-11-12T08:33:24.347Z,131604.44
2022-11-12T08:35:53.174Z,133337.66
2022-11-12T08:38:20.683Z,134061.75
2022-11-12T08:40:48.142Z,135458.78
2022-11-12T08:43:15.595Z,139978.53
2022-11-12T08:45:43.501Z,140683.78
2022-11-12T08:48:13.785Z,145911.94
2022-11-12T08:50:42.222Z,150543.25
2022-11-12T08:53:14.752Z,151908.03
2022-11-12T08:55:42.642Z,151945.28
2022-11-12T08:58:10.903Z,152041.72
2022-11-12T09:00:41.248Z,152046.91
2022-11-12T09:03:15.626Z,152136.88
2022-11-12T09:05:43.701Z,152140.75
2022-11-12T09:08:15.132Z,152122.72
2022-11-12T09:10:42.928Z,152152.31
2022-11-12T09:13:10.924Z,152190.88
2022-11-12T09:15:39.206Z,152232.03
2022-11-12T09:18:12.019Z,152232.03
2022-11-12T09:20:39.889Z,152278.38
2022-11-12T09:23:10.529Z,152298.94
2022-11-12T09:25:40.399Z,152307.94
2022-11-12T09:28:09.936Z,152368.44
2022-11-12T09:30:38.104Z,152319.56
2022-11-12T09:33:05.868Z,152396.75
2022-11-12T09:35:33.330Z,152418.59
2022-11-12T09:38:00.880Z,152435.34
2022-11-12T09:40:42.159Z,152368.44
2022-11-12T09:43:20.638Z,152352.97
2022-11-12T09:46:06.460Z,152412.19
2022-11-12T09:48:41.524Z,152408.31
2022-11-12T09:51:16.848Z,152417.31
2022-11-12T09:53:49.069Z,152444.34
2022-11-12T09:56:20.788Z,152383.88
2022-11-12T09:58:48.351Z,152381.31
2022-11-12T10:01:19.519Z,152359.44
2022-11-12T10:03:56.475Z,152360.72
2022-11-12T10:06:25.683Z,152358.16
2022-11-12T10:08:58.903Z,152407.03
2022-11-12T10:12:18.672Z,152396.75
2022-11-12T10:15:24.278Z,152444.34
2022-11-12T10:17:57.473Z,152499.75
2022-11-12T10:20:35.935Z,152560.28
2022-11-12T10:23:17.941Z,152633.66
2022-11-12T10:25:48.512Z,152615.66
2022-11-12T10:28:26.988Z,152687.75
2022-11-12T10:30:58.236Z,152698.06
2022-11-12T10:33:25.664Z,152725.09
2022-11-12T10:35:54.151Z,152748.31
2022-11-12T10:38:28.057Z,152734.16
2022-11-12T10:40:57.588Z,152735.44
2022-11-12T10:43:26.869Z,152754.75
2022-11-12T10:46:18.895Z,152780.50
2022-11-12T10:48:55.299Z,152808.84
2022-11-12T10:51:28.491Z,152829.50
2022-11-12T10:53:56.030Z,152882.34
2022-11-12T10:56:27.245Z,152906.88
2022-11-12T10:59:14.826Z,152940.41
2022-11-12T11:01:45.692Z,152950.72
2022-11-12T11:04:26.289Z,152945.53
2022-11-12T11:07:00.273Z,152985.50
2022-11-12T11:09:28.087Z,152973.91
2022-11-12T11:11:55.825Z,152999.69
2022-11-12T11:14:33.129Z,152999.69
2022-11-12T11:17:07.572Z,152971.31
2022-11-12T11:19:39.109Z,153008.69
2022-11-12T11:22:29.585Z,152998.38
2022-11-12T11:25:15.240Z,153047.41
2022-11-12T11:27:56.321Z,153073.19
2022-11-12T11:30:25.438Z,153077.03
2022-11-12T11:33:20.356Z,153077.03
2022-11-12T11:35:53.066Z,153066.72
2022-11-12T11:38:32.765Z,153105.41
2022-11-12T11:41:15.566Z,153102.81
2022-11-12T11:43:54.952Z,153120.91
2022-11-12T11:46:38.467Z,153133.78
2022-11-12T11:49:21.841Z,153138.97
2022-11-12T11:51:56.703Z,153164.75
2022-11-12T11:54:51.046Z,153175.06
2022-11-12T11:57:23.688Z,153144.09
2022-11-12T12:00:06.704Z,153163.47
2022-11-12T12:02:54.994Z,153178.94
2022-11-12T12:05:41.009Z,153175.06
2022-11-12T12:08:12.186Z,153182.84
2022-11-12T12:11:07.564Z,153198.28
2022-11-12T12:13:47.571Z,153180.25
2022-11-12T12:16:26.773Z,153180.25
2022-11-12T12:19:05.128Z,153167.34
2022-11-12T12:21:36.331Z,153199.56
2022-11-12T12:24:11.299Z,153186.69
2022-11-12T12:26:43.294Z,153213.78
2022-11-12T12:29:16.302Z,153224.06
2022-11-12T12:31:49.292Z,153226.66
2022-11-12T12:34:24.490Z,153234.44
2022-11-12T12:37:00.692Z,153234.44
2022-11-12T12:39:36.858Z,153230.56
2022-11-12T12:42:10.771Z,153193.16
2022-11-12T12:45:04.710Z,153203.47
2022-11-12T12:47:36.909Z,153199.56
2022-11-12T12:50:12.185Z,153177.66
2022-11-12T12:53:02.534Z,153171.19
2022-11-12T12:55:45.380Z,153168.66
2022-11-12T12:58:19.199Z,153191.84
2022-11-12T13:00:51.868Z,153177.66
2022-11-12T13:03:55.002Z,153187.97
2022-11-12T13:06:29.427Z,153180.25
2022-11-12T13:09:00.909Z,153175.06
2022-11-12T13:12:12.051Z,153180.25
2022-11-12T13:15:28.372Z,153169.88
2022-11-12T13:17:55.885Z,153146.69
2022-11-12T13:20:37.911Z,153145.38
2022-11-12T13:23:59.950Z,153124.78
2022-11-12T13:26:56.860Z,153104.13
2022-11-12T13:30:31.343Z,153118.31
2022-11-12T13:33:00.727Z,153110.59
2022-11-12T13:35:31.031Z,153102.81
2022-11-12T13:38:01.713Z,153089.94
2022-11-12T13:40:42.408Z,153080.91
2022-11-12T13:43:19.150Z,153087.38
2022-11-12T13:45:51.198Z,153073.19
2022-11-12T13:48:24.515Z,153056.44
2022-11-12T13:50:55.437Z,153049.94
2022-11-12T13:53:29.545Z,153038.34
2022-11-12T13:55:58.591Z,153053.84
2022-11-12T13:58:31.155Z,153056.44
2022-11-12T14:01:01.513Z,153046.13
2022-11-12T14:03:33.657Z,153035.75
2022-11-12T14:06:08.504Z,153022.88
2022-11-12T14:09:23.769Z,153020.34
2022-11-12T14:12:12.575Z,152986.78
2022-11-12T14:15:03.652Z,152959.72
2022-11-12T14:17:41.360Z,152935.22
2022-11-12T14:20:26.681Z,152928.75
2022-11-12T14:22:55.259Z,152909.47
2022-11-12T14:25:24.715Z,152891.34
2022-11-12T14:27:55.145Z,152904.28
2022-11-12T14:30:24.594Z,152862.97
2022-11-12T14:32:54.486Z,152810.16
2022-11-12T14:35:32.335Z,152794.69
2022-11-12T14:38:05.109Z,152777.97
2022-11-12T14:40:37.482Z,152740.56
2022-11-12T14:43:06.338Z,152695.50
2022-11-12T14:45:35.428Z,152680.03
2022-11-12T14:48:03.212Z,152658.13
2022-11-12T14:50:39.175Z,152600.19
2022-11-12T14:53:12.873Z,152557.69
2022-11-12T14:55:43.739Z,152519.09
2022-11-12T14:58:16.351Z,152471.38
2022-11-12T15:00:46.320Z,152431.47
2022-11-12T15:03:16.720Z,152398.03
2022-11-12T15:05:58.506Z,152378.72
2022-11-12T15:08:32.048Z,152355.56
2022-11-12T15:11:21.294Z,152313.09
2022-11-12T15:13:52.886Z,152287.38
2022-11-12T15:16:24.125Z,152265.53
2022-11-12T15:19:08.255Z,152234.63
2022-11-12T15:21:36.395Z,152262.94
2022-11-12T15:24:08.617Z,152223.06
2022-11-12T15:26:38.908Z,152179.31
2022-11-12T15:29:21.791Z,152133.06
2022-11-12T15:31:51.251Z,152112.47
2022-11-12T15:34:26.996Z,152098.31
2022-11-12T15:36:55.376Z,152082.88
2022-11-12T15:39:25.230Z,152062.31
2022-11-12T15:42:01.219Z,152057.16
2022-11-12T15:44:34.436Z,152049.47
2022-11-12T15:47:02.651Z,152052.06
2022-11-12T15:49:30.153Z,152013.41
2022-11-12T15:51:58.171Z,151995.44
2022-11-12T15:54:25.674Z,152005.72
2022-11-12T15:56:53.619Z,151942.75
2022-11-12T15:59:21.131Z,151956.88
2022-11-12T16:01:49.957Z,151935.00
2022-11-12T16:04:17.543Z,151941.47
2022-11-12T16:06:45.160Z,151914.47
2022-11-12T16:09:12.694Z,151920.88
2022-11-12T16:11:40.196Z,151900.34
2022-11-12T16:14:13.351Z,151891.34
2022-11-12T16:16:41.001Z,151884.91
2022-11-12T16:19:15.264Z,151848.94
2022-11-12T16:21:42.584Z,151848.94
2022-11-12T16:24:10.141Z,151864.38
2022-11-12T16:26:38.691Z,151807.84
2022-11-12T16:29:12.390Z,151795.00
2022-11-12T16:31:42.215Z,151798.81
2022-11-12T16:34:10.607Z,151784.69
2022-11-12T16:36:40.801Z,151744.88
2022-11-12T16:39:12.108Z,151752.59
2022-11-12T16:41:39.599Z,151765.44
2022-11-12T16:44:07.062Z,151687.13
2022-11-12T16:46:40.140Z,151720.47
2022-11-12T16:49:08.109Z,151720.47
2022-11-12T16:51:35.573Z,151712.81
2022-11-12T16:54:04.714Z,151733.31
2022-11-12T16:56:32.673Z,151723.06
2022-11-12T16:59:00.159Z,151693.50
2022-11-12T17:01:30.862Z,151657.59
2022-11-12T17:03:59.014Z,151666.56
2022-11-12T17:06:34.261Z,151602.38
2022-11-12T17:09:01.744Z,151633.19
2022-11-12T17:11:30.538Z,151652.44
2022-11-12T17:13:58.050Z,151566.44
2022-11-12T17:16:25.537Z,151599.78
2022-11-12T17:18:54.703Z,151608.81
2022-11-12T17:21:22.560Z,151576.69
2022-11-12T17:23:50.900Z,151574.13
2022-11-12T17:26:20.322Z,151589.53
2022-11-12T17:28:53.890Z,151556.13
2022-11-12T17:31:25.235Z,151579.28
2022-11-12T17:33:54.195Z,151610.06
2022-11-12T17:36:23.960Z,151561.28
2022-11-12T17:38:54.898Z,151607.53
2022-11-12T17:41:22.846Z,151597.22
2022-11-12T17:43:56.337Z,151620.34
2022-11-12T17:46:24.456Z,151620.34
2022-11-12T17:48:52.803Z,151674.28
2022-11-12T17:51:21.931Z,151626.75
2022-11-12T17:53:49.744Z,151603.66
2022-11-12T17:56:20.326Z,151635.78
2022-11-12T17:58:48.536Z,151584.38
2022-11-12T18:01:20.111Z,151617.78
2022-11-12T18:03:50.398Z,151612.63
2022-11-12T18:06:20.461Z,151524.09
2022-11-12T18:08:48.658Z,151538.22
2022-11-12T18:11:16.272Z,151517.66
2022-11-12T18:13:43.764Z,151292.81
2022-11-12T18:16:15.413Z,151551.03
2022-11-12T18:18:44.706Z,151476.59
2022-11-12T18:21:12.215Z,151481.72
2022-11-12T18:23:40.318Z,151453.50
2022-11-12T18:26:07.985Z,151096.81
2022-11-12T18:28:35.461Z,151452.22
2022-11-12T18:31:04.906Z,150287.25
2022-11-12T18:33:33.391Z,151474.06
2022-11-12T18:36:03.235Z,148378.88
2022-11-12T18:38:33.270Z,146247.47
2022-11-12T18:41:02.375Z,150175.06
2022-11-12T18:43:30.046Z,147282.28
2022-11-12T18:46:00.211Z,149109.16
2022-11-12T18:48:28.168Z,148803.50
2022-11-12T18:50:59.498Z,150045.16
2022-11-12T18:53:29.088Z,150580.88
2022-11-12T18:55:59.959Z,151379.06
2022-11-12T18:58:33.652Z,151351.44
2022-11-12T19:01:07.443Z,150095.28
2022-11-12T19:03:35.969Z,151067.13
2022-11-12T19:06:05.510Z,150226.84
2022-11-12T19:08:34.378Z,150221.47
2022-11-12T19:11:04.008Z,151325.19
2022-11-12T19:13:31.967Z,147030.66
2022-11-12T19:16:04.576Z,148357.31
2022-11-12T19:18:32.211Z,148599.66
2022-11-12T19:21:04.086Z,144521.13
2022-11-12T19:23:31.810Z,149342.03
2022-11-12T19:26:02.411Z,147755.91
2022-11-12T19:28:30.274Z,145527.16
2022-11-12T19:30:58.127Z,148738.28
2022-11-12T19:33:25.611Z,150202.34
2022-11-12T19:35:53.133Z,148550.59
2022-11-12T19:38:20.580Z,151148.56
2022-11-12T19:40:48.175Z,150358.88
2022-11-12T19:43:17.123Z,148630.94
2022-11-12T19:45:44.580Z,147856.84
2022-11-12T19:48:12.017Z,146891.09
2022-11-12T19:50:39.506Z,148169.19
2022-11-12T19:53:06.964Z,145121.19
2022-11-12T19:55:38.745Z,143712.44
2022-11-12T19:58:08.114Z,145041.34
2022-11-12T20:00:40.371Z,143320.75
2022-11-12T20:03:08.016Z,141645.97
2022-11-12T20:05:35.518Z,144003.06
2022-11-12T20:08:02.979Z,147413.69
2022-11-12T20:10:34.376Z,146455.31
2022-11-12T20:13:03.270Z,146878.22
2022-11-12T20:15:30.737Z,142620.38
2022-11-12T20:17:59.527Z,138867.41
2022-11-12T20:20:27.028Z,141577.56
2022-11-12T20:22:54.476Z,138863.84
2022-11-12T20:25:22.174Z,140902.91
2022-11-12T20:27:49.633Z,144947.50
2022-11-12T20:30:19.664Z,145919.47
2022-11-12T20:32:47.141Z,142210.00
2022-11-12T20:35:21.858Z,141182.16
2022-11-12T20:37:50.065Z,145023.91
2022-11-12T20:40:17.711Z,143533.47
2022-11-12T20:42:45.808Z,143512.81
2022-11-12T20:45:13.565Z,146570.78
2022-11-12T20:47:41.019Z,143500.66
2022-11-12T20:50:08.851Z,144138.22
2022-11-12T20:52:37.675Z,143121.66
2022-11-12T20:55:05.695Z,145575.03
2022-11-12T20:57:33.188Z,142798.53
2022-11-12T21:00:00.708Z,143792.03
2022-11-12T21:02:28.227Z,142761.00
2022-11-12T21:04:55.680Z,143430.06
2022-11-12T21:07:23.214Z,141066.16
2022-11-12T21:09:52.038Z,142417.41
2022-11-12T21:12:19.686Z,150582.97
2022-11-12T21:14:50.437Z,142410.19
2022-11-12T21:17:19.678Z,146847.19
2022-11-12T21:19:47.106Z,146808.09
2022-11-12T21:22:15.463Z,149812.56
2022-11-12T21:24:43.006Z,144428.13
2022-11-12T21:27:12.369Z,146743.47
2022-11-12T21:29:39.827Z,145651.84
2022-11-12T21:32:07.294Z,145525.25
2022-11-12T21:34:34.833Z,147184.91
2022-11-12T21:37:02.305Z,147439.06
2022-11-12T21:39:29.866Z,145526.88
2022-11-12T21:41:57.327Z,149042.81
2022-11-12T21:44:26.111Z,148691.22
2022-11-12T21:46:53.568Z,149805.72
2022-11-12T21:49:21.015Z,150433.16
2022-11-12T21:51:48.462Z,149207.72
2022-11-12T21:54:15.962Z,148158.22
2022-11-12T21:56:45.023Z,144768.16
2022-11-12T21:59:12.479Z,137632.16
2022-11-12T22:01:41.890Z,135595.03
2022-11-12T22:04:10.944Z,132567.72
2022-11-12T22:06:41.687Z,131886.81
2022-11-12T22:09:09.373Z,128510.25
2022-11-12T22:11:36.827Z,128171.16
2022-11-12T22:14:04.427Z,125471.84
2022-11-12T22:16:31.887Z,125130.75
2022-11-12T22:19:01.038Z,124113.03
2022-11-12T22:21:34.104Z,122775.41
2022-11-12T22:24:04.846Z,123461.47
2022-11-12T22:26:32.424Z,122087.47
2022-11-12T22:28:59.978Z,122762.97
2022-11-12T22:31:29.707Z,121077.44
2022-11-12T22:34:00.301Z,120408.22
2022-11-12T22:36:30.745Z,120393.94
2022-11-12T22:38:58.656Z,119716.72
2022-11-12T22:41:28.971Z,121071.28
2022-11-12T22:43:58.334Z,119049.59
2022-11-12T22:46:27.404Z,118702.97
2022-11-12T22:48:55.925Z,118356.41
2022-11-12T22:51:27.046Z,117650.59
2022-11-12T22:53:55.427Z,116648.38
2022-11-12T22:56:23.011Z,116960.00
2022-11-12T22:58:51.223Z,116625.66
2022-11-12T23:01:24.497Z,114254.31
2022-11-12T23:03:54.996Z,114574.03
2022-11-12T23:06:22.812Z,112542.09
2022-11-12T23:08:52.067Z,111853.91
2022-11-12T23:11:20.753Z,111184.81
2022-11-12T23:13:49.311Z,110861.06
2022-11-12T23:16:18.853Z,108158.78
2022-11-12T23:18:46.883Z,106464.28
2022-11-12T23:21:16.217Z,104785.59
2022-11-12T23:23:45.009Z,104760.78
2022-11-12T23:26:16.634Z,104091.28
2022-11-12T23:28:44.153Z,104096.56
2022-11-12T23:31:13.624Z,104743.03
2022-11-12T23:33:45.267Z,106738.59
2022-11-12T23:36:13.287Z,105746.22
2022-11-12T23:38:41.750Z,107745.38
2022-11-12T23:41:11.451Z,108074.59
2022-11-12T23:43:40.639Z,107062.38
2022-11-12T23:46:08.152Z,108078.28
2022-11-12T23:48:35.673Z,108422.13
2022-11-12T23:51:05.362Z,108755.97
2022-11-12T23:53:34.596Z,109432.84
2022-11-12T23:56:02.695Z,111446.19
2022-11-12T23:58:30.755Z,113831.41
